SBOSBO PDL / LPPD
Speedbird OnlineSpeedbird Online PDL / LPPD

João Paulo II Airport
18:50 23°C

Location Ponta Delgada, Portugal
Latitude: 37.7411994934
Longitude: -25.6979007721
Web Airport Website | Wikipedia
Altitude 79 Meter / 259 Feet
Distance 2,531 KM / 1,573 Miles
from London.
Time Zone UTC 0 hours (Atlantic/Azores)
Codes IATA: PDL
ICAO: LPPD
Currency £1 equals EUR 1.12
Runways
RunwayLength (m)Surface
122497Asphalt
302497Asphalt
Radio
TypeDescriptionFrequency
APPAPP119.4
TWRTWR118.3
Live ATC
METAR LPPD 241830Z 11010KT 080V140 9999 SCT020 23/18 Q1021
TAF TAF LPPD 241700Z 2418/2518 12013KT 9999 SCT020 BECMG 2501/2503 SCT008 BKN020 TEMPO 2503/2512 5000 -RADZ BR SCT004 BKN008 BECMG 2512/2514 SCT018 BKN030 TEMPO 2514/2518 SCT020
Weather As Of 24 Sep 2022 18:50
Description Scattered clouds
Wind 19 km/h from East (110°)
Cloud Cover 40%
Precipitation Rain: none, Snow: none
Sunrise 07:32
Sunset 19:37
Rotations During the last 90 days there were
10 flights from LHR
10 flights to LHR


© 2017-2022 Speedbird Online